Time;durP1;ratioP1;P1;durP2;ratioP2;P2;SDS_P1;SDS_P2;PMS_P1;PMS_P2;Temp;Humidity;BMP_temperature;BMP_pressure;BME280_temperature;BME280_humidity;BME280_pressure;Samples;Min_cycle;Max_cycle;Signal;HPM_P1;HPM_P2
2021/06/17 00:00:29;;;;;;;7.10;5.25;;;;;;;;;;5061870;28;20029;-68
2021/06/17 00:02:56;;;;;;;7.07;5.40;;;;;;;;;;5051748;28;20387;-68
2021/06/17 00:05:23;;;;;;;8.40;5.30;;;;;;;;;;5034106;28;20479;-67
2021/06/17 00:07:49;;;;;;;6.18;5.20;;;;;;;;;;5034044;28;20494;-67
2021/06/17 00:10:18;;;;;;;6.85;6.15;;;;;;;;;;5052124;28;20032;-67
2021/06/17 00:12:44;;;;;;;11.45;5.72;;;;;;;;;;5052221;28;20068;-67
2021/06/17 00:15:11;;;;;;;8.23;6.30;;;;;;;;;;5034202;28;20094;-67
2021/06/17 00:17:37;;;;;;;10.60;6.22;;;;;;;;;;5051309;28;20079;-67
2021/06/17 00:20:04;;;;;;;11.85;6.72;;;;;;;;;;5033684;28;20028;-67
2021/06/17 00:22:30;;;;;;;7.82;6.10;;;;;;;;;;5061942;28;20029;-67
2021/06/17 00:24:56;;;;;;;8.27;6.40;;;;;;;;;;5071926;28;20027;-67
2021/06/17 00:27:22;;;;;;;10.25;6.47;;;;;;;;;;5053500;28;20032;-67
2021/06/17 00:29:48;;;;;;;8.18;6.28;;;;;;;;;;5071684;28;20029;-67
2021/06/17 00:32:14;;;;;;;7.60;6.30;;;;;;;;;;5071423;28;20116;-67
2021/06/17 00:34:40;;;;;;;10.95;6.75;;;;;;;;;;5071532;28;20032;-67
2021/06/17 00:37:06;;;;;;;8.85;6.80;;;;;;;;;;5071088;28;20470;-69
2021/06/17 00:39:31;;;;;;;7.40;6.28;;;;;;;;;;5053611;28;20025;-67
2021/06/17 00:41:57;;;;;;;10.40;7.05;;;;;;;;;;5071017;28;20021;-68
2021/06/17 00:44:23;;;;;;;8.52;6.72;;;;;;;;;;5071281;28;20036;-67
2021/06/17 00:46:49;;;;;;;9.23;6.50;;;;;;;;;;5052924;28;20094;-68
2021/06/17 00:49:15;;;;;;;9.90;6.95;;;;;;;;;;5053123;28;20382;-67
2021/06/17 00:51:41;;;;;;;9.00;7.57;;;;;;;;;;5067053;28;20103;-67
2021/06/17 00:54:07;;;;;;;8.63;6.80;;;;;;;;;;5051248;28;20082;-67
2021/06/17 00:56:33;;;;;;;10.27;7.78;;;;;;;;;;5050657;28;20036;-67
2021/06/17 00:58:59;;;;;;;14.20;8.40;;;;;;;;;;5051014;28;20111;-67
2021/06/17 01:01:25;;;;;;;10.50;7.38;;;;;;;;;;5032713;28;20029;-67
2021/06/17 01:03:52;;;;;;;9.23;6.75;;;;;;;;;;5031065;28;20022;-67
2021/06/17 01:06:18;;;;;;;10.10;7.10;;;;;;;;;;5012989;28;20036;-68
2021/06/17 01:08:49;;;;;;;10.68;8.07;;;;;;;;;;5031257;28;20025;-67
2021/06/17 01:11:37;;;;;;;8.13;7.05;;;;;;;;;;5031038;28;20025;-67
2021/06/17 01:14:03;;;;;;;9.77;7.65;;;;;;;;;;4985263;28;20056;-68
2021/06/17 01:16:48;;;;;;;8.93;6.43;;;;;;;;;;5036940;28;20029;-67
2021/06/17 01:19:32;;;;;;;12.85;7.78;;;;;;;;;;5050882;28;20020;-68
2021/06/17 01:21:58;;;;;;;9.52;7.03;;;;;;;;;;5056689;28;20074;-67
2021/06/17 01:24:27;;;;;;;12.32;7.25;;;;;;;;;;5052784;28;20025;-67
2021/06/17 01:27:08;;;;;;;10.55;7.50;;;;;;;;;;5052750;28;20023;-68
2021/06/17 01:29:36;;;;;;;10.75;8.15;;;;;;;;;;5070996;28;20086;-68
2021/06/17 01:32:02;;;;;;;9.98;8.05;;;;;;;;;;5053787;28;20040;-67
2021/06/17 01:34:29;;;;;;;11.93;7.20;;;;;;;;;;5074497;28;20032;-68
2021/06/17 01:37:00;;;;;;;10.20;7.25;;;;;;;;;;5073962;28;20060;-67
2021/06/17 01:39:26;;;;;;;12.65;7.35;;;;;;;;;;5074363;28;20047;-68
2021/06/17 01:41:53;;;;;;;11.02;8.02;;;;;;;;;;5074093;28;20486;-68
2021/06/17 01:44:20;;;;;;;15.25;7.40;;;;;;;;;;5056265;28;20025;-67
2021/06/17 01:46:47;;;;;;;8.80;7.78;;;;;;;;;;5073946;28;20389;-68
2021/06/17 01:49:13;;;;;;;12.48;6.85;;;;;;;;;;5074027;28;20024;-67
2021/06/17 01:51:39;;;;;;;11.85;6.95;;;;;;;;;;5070524;28;20028;-67
2021/06/17 01:54:06;;;;;;;11.70;7.93;;;;;;;;;;5054032;28;20505;-67
2021/06/17 01:56:32;;;;;;;9.32;7.65;;;;;;;;;;5053675;28;20455;-67
2021/06/17 01:59:00;;;;;;;9.52;7.68;;;;;;;;;;5036096;28;20047;-68
2021/06/17 02:01:31;;;;;;;9.23;7.13;;;;;;;;;;5035707;28;20029;-67
2021/06/17 02:03:58;;;;;;;9.35;7.38;;;;;;;;;;5016610;28;20450;-67
2021/06/17 02:06:26;;;;;;;10.35;7.60;;;;;;;;;;5034311;28;20088;-67
2021/06/17 02:08:53;;;;;;;8.85;7.95;;;;;;;;;;5016121;28;20025;-67
2021/06/17 02:11:20;;;;;;;9.38;7.45;;;;;;;;;;5033795;28;20033;-68
2021/06/17 02:13:46;;;;;;;12.38;6.90;;;;;;;;;;5016034;28;20025;-67
2021/06/17 02:16:13;;;;;;;12.43;7.93;;;;;;;;;;5036920;28;20032;-67
2021/06/17 02:18:42;;;;;;;11.30;7.97;;;;;;;;;;5053476;28;20033;-67
2021/06/17 02:21:09;;;;;;;9.50;7.45;;;;;;;;;;5053626;28;20024;-66
2021/06/17 02:23:36;;;;;;;10.82;7.35;;;;;;;;;;5072741;28;20100;-67
2021/06/17 02:26:02;;;;;;;12.10;7.85;;;;;;;;;;5073654;28;20021;-67
2021/06/17 02:28:31;;;;;;;15.43;8.05;;;;;;;;;;5073311;28;20021;-67
2021/06/17 02:30:59;;;;;;;9.65;7.72;;;;;;;;;;5073225;28;20024;-67
2021/06/17 02:33:26;;;;;;;9.15;7.60;;;;;;;;;;5073181;28;20393;-67
2021/06/17 02:35:54;;;;;;;10.60;7.07;;;;;;;;;;5073208;28;20020;-67
2021/06/17 02:38:22;;;;;;;10.35;8.57;;;;;;;;;;5054944;28;20024;-67
2021/06/17 02:40:48;;;;;;;11.98;8.25;;;;;;;;;;5073007;28;20017;-67
2021/06/17 02:43:16;;;;;;;10.60;8.00;;;;;;;;;;5072588;28;20689;-67
2021/06/17 02:45:43;;;;;;;14.30;8.15;;;;;;;;;;5054785;28;20028;-67
2021/06/17 02:48:09;;;;;;;18.90;9.10;;;;;;;;;;5072620;28;20467;-67
2021/06/17 02:50:35;;;;;;;12.20;7.75;;;;;;;;;;5072724;28;20039;-67
2021/06/17 02:53:01;;;;;;;11.45;8.38;;;;;;;;;;5057812;28;20025;-67
2021/06/17 02:55:27;;;;;;;11.05;8.70;;;;;;;;;;5052981;28;20056;-68
2021/06/17 02:57:59;;;;;;;11.38;8.20;;;;;;;;;;5053443;28;20025;-68
2021/06/17 03:00:28;;;;;;;11.38;8.40;;;;;;;;;;5042897;28;20407;-68
2021/06/17 03:03:03;;;;;;;11.88;8.88;;;;;;;;;;5014763;28;20511;-69
2021/06/17 03:05:51;;;;;;;8.90;7.78;;;;;;;;;;5032784;28;20083;-68
2021/06/17 03:08:25;;;;;;;14.35;8.63;;;;;;;;;;5032563;28;20469;-68
2021/06/17 03:10:52;;;;;;;8.65;7.55;;;;;;;;;;5033000;28;20039;-67
2021/06/17 03:13:19;;;;;;;9.40;7.70;;;;;;;;;;5032976;28;20026;-67
2021/06/17 03:15:46;;;;;;;9.07;7.85;;;;;;;;;;5014855;28;20439;-67
2021/06/17 03:18:12;;;;;;;66.78;44.70;;;;;;;;;;5032198;28;20406;-67
2021/06/17 03:20:42;;;;;;;96.57;62.33;;;;;;;;;;5026811;28;20017;-67
2021/06/17 03:23:11;;;;;;;12.63;7.75;;;;;;;;;;5056918;28;20022;-67
2021/06/17 03:25:37;;;;;;;14.88;7.10;;;;;;;;;;5030896;28;20483;-67
2021/06/17 03:28:04;;;;;;;9.50;7.15;;;;;;;;;;5030665;28;20026;-67
2021/06/17 03:30:30;;;;;;;116.18;73.78;;;;;;;;;;5030971;28;20318;-67
2021/06/17 03:33:00;;;;;;;132.35;79.18;;;;;;;;;;5032123;28;20035;-68
2021/06/17 03:35:32;;;;;;;14.18;8.20;;;22.50;60.50;;;;;;5032062;28;20033;-68
2021/06/17 03:37:58;;;;;;;11.00;7.47;;;22.80;59.60;;;;;;5014127;28;20052;-68
2021/06/17 03:40:26;;;;;;;11.23;6.25;;;23.20;58.40;;;;;;5031950;28;20037;-68
2021/06/17 03:42:53;;;;;;;10.20;7.03;;;23.50;57.90;;;;;;5014001;28;20505;-68
2021/06/17 03:45:20;;;;;;;8.02;6.20;;;;;;;;;;5032330;28;20226;-67
2021/06/17 03:47:48;;;;;;;8.90;6.47;;;24.20;55.20;;;;;;5031826;28;20025;-68
2021/06/17 03:50:16;;;;;;;8.13;6.50;;;24.40;55.00;;;;;;5031770;28;20487;-68
2021/06/17 03:52:46;;;;;;;9.50;6.90;;;24.80;53.40;;;;;;5056001;28;20115;-68
2021/06/17 03:55:15;;;;;;;7.45;6.13;;;24.90;52.90;;;;;;5071006;28;20024;-68
2021/06/17 03:57:42;;;;;;;12.50;7.32;;;25.50;51.80;;;;;;5071510;28;20021;-69
2021/06/17 04:00:08;;;;;;;6.85;5.85;;;25.70;50.80;;;;;;5064139;28;20040;-67
2021/06/17 04:02:34;;;;;;;11.60;6.85;;;26.00;50.00;;;;;;5051274;28;20025;-67
2021/06/17 04:05:02;;;;;;;11.23;6.75;;;26.10;49.30;;;;;;5051704;28;20029;-67
2021/06/17 04:07:32;;;;;;;11.43;6.90;;;26.40;48.70;;;;;;5051368;28;20487;-68
2021/06/17 04:10:00;;;;;;;7.88;5.80;;;;;;;;;;5051462;28;20406;-68
2021/06/17 04:12:28;;;;;;;10.65;5.90;;;;;;;;;;5033522;28;20029;-68
2021/06/17 04:14:55;;;;;;;8.70;6.15;;;;;;;;;;5051385;28;20479;-68
2021/06/17 04:17:27;;;;;;;7.18;6.32;;;;;;;;;;5045334;28;20029;-68
2021/06/17 04:19:53;;;;;;;7.40;5.43;;;28.10;44.70;;;;;;5033310;28;20029;-68
2021/06/17 04:22:21;;;;;;;8.70;5.53;;;28.30;43.80;;;;;;5060171;28;20105;-68
2021/06/17 04:24:51;;;;;;;7.50;5.57;;;28.90;42.70;;;;;;5071666;28;20109;-69
2021/06/17 04:27:20;;;;;;;9.07;5.88;;;29.00;42.40;;;;;;5071518;28;20104;-69
2021/06/17 04:29:48;;;;;;;9.02;5.90;;;29.40;41.40;;;;;;5053464;28;20124;-69
2021/06/17 04:32:14;;;;;;;7.45;5.82;;;29.50;41.40;;;;;;5038355;28;20041;-69
2021/06/17 04:34:42;;;;;;;10.35;6.07;;;29.60;40.80;;;;;;5031116;28;20056;-69
2021/06/17 04:37:14;;;;;;;10.55;5.35;;;29.60;40.80;;;;;;5013546;28;20025;-69
2021/06/17 04:39:41;;;;;;;8.52;6.07;;;29.20;41.70;;;;;;5031496;28;20026;-68
2021/06/17 04:44:42;;;;;;;7.50;5.40;;;30.10;40.10;;;;;;5067805;28;20064;-65
2021/06/17 04:47:08;;;;;;;7.78;5.78;;;30.30;39.70;;;;;;5069982;28;20024;-67
2021/06/17 04:49:38;;;;;;;8.60;5.43;;;30.90;38.90;;;;;;5071028;28;20052;-66
2021/06/17 04:52:07;;;;;;;9.20;5.73;;;31.30;37.90;;;;;;5070880;28;20039;-66
2021/06/17 04:54:34;;;;;;;7.82;5.80;;;31.10;38.10;;;;;;5051199;28;20566;-65
2021/06/17 04:57:02;;;;;;;10.07;5.65;;;31.40;37.50;;;;;;5050200;28;20449;-65
2021/06/17 04:59:29;;;;;;;7.53;5.63;;;31.40;37.80;;;;;;5050798;28;20100;-66
2021/06/17 05:01:55;;;;;;;7.53;5.60;;;32.00;36.90;;;;;;5050650;28;20416;-66
2021/06/17 05:04:20;;;;;;;9.43;5.75;;;32.70;35.90;;;;;;5051023;28;20025;-66
2021/06/17 05:06:58;;;;;;;9.52;5.20;;;33.40;34.50;;;;;;5053050;28;20035;-65
2021/06/17 05:12:08;;;;;;;7.70;5.18;;;33.50;34.40;;;;;;5054706;28;20036;-66
2021/06/17 05:14:35;;;;;;;6.30;5.53;;;33.90;33.60;;;;;;5054607;28;20021;-66
2021/06/17 05:17:00;;;;;;;6.60;5.32;;;32.50;34.70;;;;;;5054114;28;20487;-67
2021/06/17 05:19:26;;;;;;;7.70;5.22;;;32.20;36.30;;;;;;5054649;28;20021;-66
2021/06/17 05:21:52;;;;;;;7.75;4.72;;;32.60;35.40;;;;;;5033949;28;20085;-66
2021/06/17 05:24:17;;;;;;;7.60;5.10;;;33.20;34.00;;;;;;5034587;28;20029;-66
2021/06/17 05:26:43;;;;;;;8.68;5.68;;;33.00;34.60;;;;;;5033866;28;20060;-66
2021/06/17 05:29:08;;;;;;;7.00;4.93;;;33.30;33.70;;;;;;5034407;28;20056;-66
2021/06/17 05:31:34;;;;;;;7.05;4.70;;;33.50;33.60;;;;;;5034451;28;20036;-67
2021/06/17 05:33:59;;;;;;;7.28;5.18;;;34.40;32.90;;;;;;5034058;28;20036;-66
2021/06/17 05:36:25;;;;;;;8.57;5.25;;;35.50;30.90;;;;;;5033905;28;20487;-66
2021/06/17 05:38:51;;;;;;;9.20;4.90;;;35.90;30.70;;;;;;5034242;28;20017;-66
2021/06/17 05:41:17;;;;;;;11.23;5.55;;;36.30;29.00;;;;;;5034239;28;20109;-66
2021/06/17 05:43:43;;;;;;;5.45;4.93;;;36.50;29.20;;;;;;5034150;28;20499;-66
2021/06/17 05:46:09;;;;;;;6.15;5.05;;;36.20;29.60;;;;;;5033916;28;20029;-66
2021/06/17 05:48:36;;;;;;;10.00;5.90;;;36.00;29.70;;;;;;5034266;28;20021;-66
2021/06/17 05:51:02;;;;;;;6.45;4.93;;;35.20;30.50;;;;;;5034054;28;20100;-66
2021/06/17 05:53:27;;;;;;;8.75;5.68;;;34.70;31.80;;;;;;5052450;28;20017;-67
2021/06/17 05:55:53;;;;;;;9.23;5.50;;;34.40;32.30;;;;;;5053853;28;20463;-66
2021/06/17 05:58:18;;;;;;;9.50;5.43;;;34.60;31.70;;;;;;5053052;28;20028;-66
2021/06/17 06:00:45;;;;;;;9.77;4.82;;;35.40;31.10;;;;;;5031505;28;20030;-66
2021/06/17 06:03:11;;;;;;;18.98;5.75;;;35.40;30.50;;;;;;5031635;28;20084;-66
2021/06/17 06:05:37;;;;;;;13.02;6.05;;;35.40;30.50;;;;;;5032092;28;20029;-65
2021/06/17 06:08:08;;;;;;;5.47;4.45;;;35.20;31.00;;;;;;5030648;28;20021;-67
2021/06/17 06:10:34;;;;;;;5.05;4.22;;;35.50;30.70;;;;;;5031936;28;20099;-67
2021/06/17 06:13:02;;;;;;;6.45;4.75;;;36.50;29.30;;;;;;5031114;28;20182;-67
2021/06/17 06:15:33;;;;;;;13.60;5.20;;;35.30;30.50;;;;;;5033298;28;20029;-66
2021/06/17 06:18:04;;;;;;;9.13;5.03;;;33.90;32.80;;;;;;5050535;28;20048;-66
2021/06/17 06:20:30;;;;;;;7.85;5.00;;;35.10;31.20;;;;;;5053552;28;20106;-65
2021/06/17 06:22:55;;;;;;;10.38;5.18;;;34.70;31.40;;;;;;5053622;28;20095;-65
2021/06/17 06:25:21;;;;;;;7.50;4.57;;;34.40;31.90;;;;;;5053499;28;20036;-65
2021/06/17 06:27:46;;;;;;;7.57;5.10;;;34.40;32.10;;;;;;5052853;28;20096;-65
2021/06/17 06:30:12;;;;;;;13.85;5.55;;;33.90;32.50;;;;;;5035326;28;20021;-66
2021/06/17 06:32:38;;;;;;;7.38;5.25;;;33.90;32.80;;;;;;5052961;28;20399;-66
2021/06/17 06:35:05;;;;;;;9.88;4.82;;;34.20;32.80;;;;;;5052981;28;20036;-66
2021/06/17 06:37:31;;;;;;;7.05;4.53;;;35.20;31.70;;;;;;5035096;28;20094;-67
2021/06/17 06:39:56;;;;;;;10.02;4.72;;;35.00;31.10;;;;;;5053157;28;20025;-65
2021/06/17 06:42:22;;;;;;;5.32;4.80;;;35.70;30.90;;;;;;5052803;28;20021;-65
2021/06/17 06:44:48;;;;;;;9.55;4.45;;;36.80;29.60;;;;;;5052763;28;20021;-65
2021/06/17 06:47:13;;;;;;;9.77;5.15;;;37.40;28.20;;;;;;5052437;28;20499;-67
2021/06/17 06:49:39;;;;;;;7.00;4.07;;;37.80;28.70;;;;;;5052886;28;20032;-65
2021/06/17 06:52:05;;;;;;;6.57;4.57;;;38.80;26.70;;;;;;5035012;28;20041;-65
2021/06/17 06:54:30;;;;;;;13.48;4.63;;;37.80;27.50;;;;;;5034872;28;20128;-72
2021/06/17 06:56:56;;;;;;;6.65;5.03;;;36.70;28.70;;;;;;5051997;28;20064;-70
2021/06/17 06:59:21;;;;;;;8.43;4.97;;;35.50;30.70;;;;;;5050121;28;20095;-69
2021/06/17 07:01:47;;;;;;;16.10;11.38;;;35.40;30.20;;;;;;5034044;28;20025;-71
2021/06/17 07:04:12;;;;;;;64.35;45.60;;;35.40;30.30;;;;;;5052452;28;20021;-72
2021/06/17 07:06:39;;;;;;;29.05;9.43;;;35.10;31.20;;;;;;5052263;28;20025;-72
2021/06/17 07:09:06;;;;;;;8.10;5.32;;;35.50;30.90;;;;;;5052436;28;20461;-71
2021/06/17 07:11:32;;;;;;;24.25;18.30;;;36.90;28.60;;;;;;5052581;28;20029;-71
2021/06/17 07:13:57;;;;;;;10.07;5.13;;;37.50;28.00;;;;;;5052380;28;20510;-71
2021/06/17 07:16:24;;;;;;;16.17;9.88;;;37.00;27.80;;;;;;5051651;28;20021;-72
2021/06/17 07:18:50;;;;;;;18.63;12.15;;;36.40;28.80;;;;;;5034204;28;20033;-70
2021/06/17 07:21:16;;;;;;;11.05;6.00;;;35.90;29.40;;;;;;5052191;28;20029;-72
2021/06/17 07:23:45;;;;;;;17.90;12.07;;;35.30;30.60;;;;;;5051899;28;20335;-66
2021/06/17 07:26:11;;;;;;;6.25;5.25;;;;;;;;;;5050178;28;20090;-67
2021/06/17 07:28:37;;;;;;;7.50;5.47;;;34.20;31.90;;;;;;5049621;28;20146;-67
2021/06/17 07:31:02;;;;;;;7.57;4.90;;;33.70;32.70;;;;;;5051204;28;20104;-66
2021/06/17 07:33:28;;;;;;;6.85;4.97;;;34.00;32.50;;;;;;5033910;28;20120;-66
2021/06/17 07:35:54;;;;;;;9.25;4.85;;;34.80;31.40;;;;;;5051638;28;20498;-66
2021/06/17 07:38:20;;;;;;;5.15;4.32;;;34.70;31.00;;;;;;5051395;28;20021;-66
2021/06/17 07:40:45;;;;;;;10.40;5.35;;;35.10;30.60;;;;;;5051762;28;20502;-66
2021/06/17 07:43:11;;;;;;;8.85;5.10;;;35.20;30.80;;;;;;5051719;28;20113;-65
2021/06/17 07:45:37;;;;;;;12.38;5.47;;;34.80;30.70;;;;;;5051768;28;20025;-66
2021/06/17 07:48:03;;;;;;;7.75;4.75;;;34.70;30.90;;;;;;5033774;28;20051;-66
2021/06/17 07:50:29;;;;;;;13.65;5.65;;;34.90;30.40;;;;;;5051716;28;20041;-66
2021/06/17 07:52:55;;;;;;;9.68;4.95;;;34.70;30.70;;;;;;5051543;28;20029;-66
2021/06/17 07:55:21;;;;;;;8.10;5.03;;;35.10;30.20;;;;;;5033849;28;20063;-66
2021/06/17 07:57:46;;;;;;;12.52;4.85;;;35.70;29.20;;;;;;5051145;28;20053;-67
2021/06/17 08:00:12;;;;;;;10.05;5.03;;;36.40;28.80;;;;;;5051256;28;20108;-67
2021/06/17 08:02:38;;;;;;;9.35;5.22;;;36.50;27.70;;;;;;5051319;28;20021;-66
2021/06/17 08:05:04;;;;;;;13.25;4.80;;;36.20;27.90;;;;;;5051353;28;20086;-65
2021/06/17 08:07:29;;;;;;;6.68;4.80;;;35.20;29.40;;;;;;5033413;28;20052;-65
2021/06/17 08:09:55;;;;;;;7.97;4.95;;;34.90;30.30;;;;;;5033537;28;20067;-64
2021/06/17 08:12:22;;;;;;;12.93;5.57;;;34.50;30.20;;;;;;5051209;28;20029;-65
2021/06/17 08:14:48;;;;;;;7.65;4.53;;;34.50;30.50;;;;;;5051129;28;20108;-65
2021/06/17 08:17:14;;;;;;;5.95;4.95;;;34.80;30.00;;;;;;5050610;28;20120;-66
2021/06/17 08:19:39;;;;;;;8.95;4.95;;;34.90;30.00;;;;;;5051188;28;20170;-65
2021/06/17 08:22:07;;;;;;;5.68;4.47;;;35.80;29.20;;;;;;5051171;28;20040;-66
2021/06/17 08:24:36;;;;;;;8.93;4.72;;;35.40;29.30;;;;;;5051137;28;20049;-66
2021/06/17 08:27:02;;;;;;;11.57;5.00;;;35.60;29.50;;;;;;5050749;28;20025;-65
2021/06/17 08:29:28;;;;;;;10.13;4.68;;;35.40;29.20;;;;;;5051059;28;20498;-66
2021/06/17 08:31:53;;;;;;;7.50;4.28;;;35.10;30.00;;;;;;5051155;28;20029;-66
2021/06/17 08:34:19;;;;;;;4.68;3.42;;;35.70;29.70;;;;;;5016728;28;20037;-66
2021/06/17 08:36:45;;;;;;;7.85;3.40;;;35.90;25.70;;;;;;5050805;28;20022;-66
2021/06/17 08:39:10;;;;;;;4.80;3.25;;;36.40;24.20;;;;;;5033434;28;20390;-65
2021/06/17 08:41:36;;;;;;;8.18;3.42;;;36.60;24.00;;;;;;5053293;28;20031;-65
2021/06/17 08:44:02;;;;;;;6.55;3.53;;;37.30;23.50;;;;;;5055215;28;20045;-66
2021/06/17 08:46:28;;;;;;;10.35;3.63;;;37.10;24.10;;;;;;5036987;28;20363;-66
2021/06/17 08:48:54;;;;;;;7.47;3.45;;;37.30;23.70;;;;;;5055511;28;20052;-66
2021/06/17 08:51:20;;;;;;;5.53;3.60;;;37.20;23.40;;;;;;5055217;28;20108;-65
2021/06/17 08:53:51;;;;;;;11.30;3.40;;;37.10;23.40;;;;;;5055314;28;20566;-64
2021/06/17 08:56:16;;;;;;;4.82;3.40;;;37.00;23.10;;;;;;5036916;28;20380;-65
2021/06/17 08:58:42;;;;;;;7.72;3.20;;;36.40;23.90;;;;;;5037126;28;20044;-66
2021/06/17 09:01:12;;;;;;;7.00;3.60;;;35.90;24.00;;;;;;5054945;28;20092;-66
2021/06/17 09:03:40;;;;;;;6.38;3.38;;;35.90;24.00;;;;;;5037394;28;20021;-66
2021/06/17 09:06:06;;;;;;;4.20;2.78;;;35.60;24.00;;;;;;5054774;28;20033;-66
2021/06/17 09:08:33;;;;;;;4.60;3.10;;;35.50;24.10;;;;;;5055086;28;20021;-66
2021/06/17 09:11:01;;;;;;;5.32;3.00;;;35.00;24.90;;;;;;5054801;28;20108;-66
2021/06/17 09:13:32;;;;;;;6.20;3.15;;;35.40;24.20;;;;;;5022645;28;20150;-64
2021/06/17 09:15:58;;;;;;;5.80;2.92;;;34.70;24.90;;;;;;5053358;28;20025;-67
2021/06/17 09:18:27;;;;;;;7.60;3.15;;;35.20;25.50;;;;;;5053632;28;20542;-66
2021/06/17 09:21:02;;;;;;;3.40;3.10;;;35.90;24.00;;;;;;5054470;28;20025;-66
2021/06/17 09:23:31;;;;;;;5.18;3.38;;;36.50;24.40;;;;;;5054378;28;20029;-66
2021/06/17 09:26:00;;;;;;;4.18;2.67;;;36.70;24.70;;;;;;5054690;28;20386;-65
2021/06/17 09:28:28;;;;;;;7.45;3.45;;;36.60;22.20;;;;;;5054076;28;20033;-66
2021/06/17 09:30:54;;;;;;;4.85;3.97;;;36.40;25.00;;;;;;5054178;28;20028;-66
2021/06/17 09:33:25;;;;;;;5.13;3.20;;;36.50;25.30;;;;;;5053962;28;20096;-66
2021/06/17 09:35:55;;;;;;;5.05;3.45;;;36.40;24.40;;;;;;5053884;28;20105;-66
2021/06/17 09:38:22;;;;;;;4.22;3.63;;;36.20;24.90;;;;;;5053885;28;20067;-66
2021/06/17 09:40:52;;;;;;;4.70;2.95;;;35.90;24.80;;;;;;5054368;28;20031;-65
2021/06/17 09:43:24;;;;;;;4.72;3.20;;;35.60;25.30;;;;;;5054278;28;20083;-65
2021/06/17 09:46:01;;;;;;;7.25;3.40;;;35.20;25.60;;;;;;5054198;28;20028;-66
2021/06/17 09:48:36;;;;;;;17.98;6.45;;;35.30;26.20;;;;;;5036139;28;20121;-65
2021/06/17 09:51:21;;;;;;;24.52;7.88;;;35.50;27.10;;;;;;5054156;28;20021;-65
2021/06/17 09:53:48;;;;;;;5.00;3.45;;;35.70;27.40;;;;;;5052736;28;20102;-66
2021/06/17 09:56:28;;;;;;;6.43;3.22;;;35.20;25.10;;;;;;5053716;28;20024;-66
2021/06/17 09:58:54;;;;;;;11.85;5.43;;;34.80;25.10;;;;;;5054218;28;20390;-65
2021/06/17 10:01:31;;;;;;;5.30;3.55;;;34.60;28.10;;;;;;5053788;28;20029;-66
2021/06/17 10:04:18;;;;;;;7.97;4.15;;;34.70;25.60;;;;;;5036397;28;20033;-67
2021/06/17 10:06:44;;;;;;;5.28;3.75;;;34.80;28.00;;;;;;5053424;28;20033;-66
2021/06/17 10:09:12;;;;;;;5.50;3.58;;;34.70;27.40;;;;;;5053509;28;20036;-65
2021/06/17 10:11:45;;;;;;;5.63;2.78;;;34.50;26.30;;;;;;5019783;28;20033;-67
2021/06/17 10:14:12;;;;;;;7.07;2.80;;;34.50;26.50;;;;;;5053680;28;20096;-67
2021/06/17 10:16:40;;;;;;;5.63;3.33;;;34.50;25.30;;;;;;5053477;28;20097;-66
2021/06/17 10:19:06;;;;;;;5.43;3.22;;;34.10;25.60;;;;;;5053770;28;20043;-66
2021/06/17 10:21:32;;;;;;;4.65;3.17;;;33.90;26.30;;;;;;5053285;28;20020;-66
2021/06/17 10:24:00;;;;;;;4.80;3.22;;;34.00;26.80;;;;;;5053424;28;20041;-66
2021/06/17 10:26:30;;;;;;;8.05;3.72;;;34.00;26.70;;;;;;5053195;28;20580;-66
2021/06/17 10:28:56;;;;;;;7.55;3.67;;;33.70;26.50;;;;;;5053800;28;20029;-66
2021/06/17 10:31:45;;;;;;;5.85;3.53;;;33.30;27.60;;;;;;5053661;28;20021;-67
2021/06/17 10:34:23;;;;;;;4.75;3.42;;;32.90;28.20;;;;;;5053411;28;20021;-67
2021/06/17 10:37:17;;;;;;;5.15;3.30;;;32.70;29.40;;;;;;5052992;28;20032;-67
2021/06/17 10:39:44;;;;;;;5.60;3.30;;;32.70;29.40;;;;;;5053461;28;20025;-67
2021/06/17 10:42:16;;;;;;;5.38;3.53;;;32.40;28.70;;;;;;5053376;28;20025;-67
2021/06/17 10:45:10;;;;;;;6.05;3.05;;;32.30;28.90;;;;;;5036602;28;20068;-65
2021/06/17 10:47:45;;;;;;;5.47;3.67;;;32.10;30.10;;;;;;5030592;28;20410;-66
2021/06/17 10:50:12;;;;;;;6.93;4.13;;;31.90;31.60;;;;;;5052914;28;20039;-66
2021/06/17 10:52:43;;;;;;;9.48;3.60;;;31.90;31.40;;;;;;5052473;28;20029;-63
2021/06/17 10:55:11;;;;;;;4.82;3.70;;;32.00;31.60;;;;;;5049607;28;20086;-66
2021/06/17 10:57:43;;;;;;;7.32;3.33;;;31.80;31.10;;;;;;5050767;28;20021;-66
2021/06/17 11:00:25;;;;;;;6.95;3.60;;;31.80;30.50;;;;;;5046001;28;20469;-65
2021/06/17 11:02:54;;;;;;;9.82;3.30;;;31.60;30.00;;;;;;5035587;28;20438;-65
2021/06/17 11:05:29;;;;;;;11.52;3.55;;;31.60;29.70;;;;;;5032150;28;20491;-65
2021/06/17 11:08:19;;;;;;;5.32;3.10;;;31.40;29.90;;;;;;5044474;28;20103;-65
2021/06/17 11:10:50;;;;;;;9.83;3.37;;;31.40;31.30;;;;;;5052845;28;20029;-65
2021/06/17 11:13:34;;;;;;;;;;;31.40;30.30;;;;;;5052106;28;20029;-66
2021/06/17 11:16:13;;;;;;;7.13;3.53;;;31.30;31.10;;;;;;5051407;28;19909;-66
2021/06/17 11:18:46;;;;;;;4.25;3.17;;;31.30;29.80;;;;;;5051754;28;20075;-66
2021/06/17 11:21:24;;;;;;;4.45;3.20;;;31.40;30.90;;;;;;5051783;28;20471;-66
2021/06/17 11:23:53;;;;;;;5.68;3.33;;;31.40;30.30;;;;;;5051946;28;20074;-66
2021/06/17 11:26:44;;;;;;;5.38;3.30;;;31.40;30.20;;;;;;5051523;28;20074;-64
2021/06/17 11:29:40;;;;;;;7.80;3.47;;;31.50;31.10;;;;;;5051621;28;20390;-65
2021/06/17 11:32:26;;;;;;;8.43;3.70;;;31.50;29.10;;;;;;5051783;28;20525;-67
2021/06/17 11:34:52;;;;;;;7.40;3.20;;;31.70;30.60;;;;;;5051918;28;20037;-66
2021/06/17 11:37:17;;;;;;;3.28;2.70;;;31.70;31.10;;;;;;5051211;28;20033;-66
2021/06/17 11:39:47;;;;;;;3.95;3.40;;;31.70;30.60;;;;;;5050319;28;20063;-66
2021/06/17 11:42:17;;;;;;;4.63;3.35;;;31.70;30.60;;;;;;5051407;28;20104;-66
2021/06/17 11:44:43;;;;;;;4.90;3.53;;;31.70;30.20;;;;;;5051351;28;20057;-66
2021/06/17 11:47:15;;;;;;;9.65;3.75;;;31.70;31.50;;;;;;5051111;28;20270;-66
2021/06/17 11:49:44;;;;;;;6.28;3.75;;;31.60;30.50;;;;;;5051294;28;20104;-66
2021/06/17 11:52:15;;;;;;;5.85;3.38;;;31.50;32.10;;;;;;5051815;28;20030;-66
2021/06/17 11:54:42;;;;;;;6.05;3.92;;;31.50;32.30;;;;;;5051811;28;20025;-66
2021/06/17 11:57:08;;;;;;;4.47;3.80;;;31.80;32.60;;;;;;5051179;28;20060;-66
2021/06/17 11:59:36;;;;;;;4.00;3.47;;;31.80;32.50;;;;;;5051436;28;20044;-66
2021/06/17 12:02:14;;;;;;;4.53;3.30;;;31.90;32.30;;;;;;5050614;28;20099;-66
2021/06/17 12:07:48;;;;;;;3.78;3.28;;;31.80;31.40;;;;;;5029885;28;20043;-66
2021/06/17 12:10:17;;;;;;;4.47;3.78;;;31.80;31.30;;;;;;5051521;28;20040;-66
2021/06/17 12:12:50;;;;;;;6.97;3.70;;;31.80;31.40;;;;;;5033761;28;20037;-66
2021/06/17 12:15:18;;;;;;;5.57;3.83;;;31.60;30.80;;;;;;5051000;28;20032;-66
2021/06/17 12:17:54;;;;;;;7.80;3.17;;;31.40;31.60;;;;;;5050897;28;20363;-65
2021/06/17 12:20:23;;;;;;;7.05;2.92;;;31.40;31.60;;;;;;5046433;28;20441;-65
2021/06/17 12:23:04;;;;;;;6.65;3.22;;;31.40;30.90;;;;;;5050974;28;20376;-65
2021/06/17 12:25:33;;;;;;;6.00;3.00;;;31.30;31.00;;;;;;5051548;28;20419;-65
2021/06/17 12:28:02;;;;;;;4.38;3.15;;;31.40;32.30;;;;;;5050830;28;20074;-68
2021/06/17 12:30:33;;;;;;;4.28;3.35;;;31.40;31.70;;;;;;5051182;28;20490;-65
2021/06/17 12:33:08;;;;;;;9.10;3.50;;;31.50;32.40;;;;;;5050995;28;20032;-66
2021/06/17 12:35:43;;;;;;;5.60;3.30;;;31.60;31.80;;;;;;5033476;28;20028;-66
2021/06/17 12:38:11;;;;;;;4.60;2.92;;;31.60;31.10;;;;;;5050633;28;20021;-66
2021/06/17 12:40:43;;;;;;;4.72;3.72;;;31.50;30.40;;;;;;5050930;28;20075;-68
2021/06/17 12:43:14;;;;;;;4.53;3.17;;;31.50;30.40;;;;;;5050756;28;20032;-66
2021/06/17 12:45:42;;;;;;;7.43;3.05;;;31.60;31.80;;;;;;5051082;28;20029;-68
2021/06/17 12:48:20;;;;;;;6.72;2.90;;;31.70;30.80;;;;;;5032630;28;20033;-66
2021/06/17 12:53:46;;;;;;;4.22;2.45;;;31.70;31.70;;;;;;5051072;28;20471;-67
2021/06/17 12:56:12;;;;;;;6.50;2.60;;;31.70;30.30;;;;;;5050672;28;20504;-66
2021/06/17 12:58:51;;;;;;;8.30;3.30;;;31.80;30.90;;;;;;5051002;28;20131;-66
2021/06/17 13:01:20;;;;;;;3.25;2.58;;;31.80;31.80;;;;;;5050841;28;20021;-65
2021/06/17 13:03:46;;;;;;;4.15;2.83;;;31.80;29.50;;;;;;5050816;28;20028;-67
2021/06/17 13:06:12;;;;;;;3.38;2.70;;;31.90;28.80;;;;;;5050644;28;20391;-65
2021/06/17 13:08:48;;;;;;;3.78;2.75;;;31.70;29.00;;;;;;5050764;28;20021;-67
2021/06/17 13:11:29;;;;;;;4.30;2.30;;;31.60;29.10;;;;;;5050767;28;20025;-66
2021/06/17 13:14:08;;;;;;;5.15;2.63;;;31.60;28.50;;;;;;5032857;28;20124;-68
2021/06/17 13:16:35;;;;;;;5.00;2.88;;;31.50;28.90;;;;;;5050389;28;20059;-66
2021/06/17 13:19:07;;;;;;;5.10;2.58;;;31.40;29.20;;;;;;5050332;28;20447;-66
2021/06/17 13:21:33;;;;;;;4.88;2.40;;;31.40;29.10;;;;;;5050561;28;20071;-66
2021/06/17 13:23:59;;;;;;;4.75;2.35;;;31.50;28.60;;;;;;5050631;28;20017;-67
2021/06/17 13:26:28;;;;;;;3.38;2.17;;;31.40;27.50;;;;;;5050136;28;20052;-67
2021/06/17 13:28:58;;;;;;;118.30;12.65;;;31.40;27.70;;;;;;5053477;28;20017;-67
2021/06/17 13:31:23;;;;;;;3.05;2.20;;;31.40;28.30;;;;;;5054337;28;20510;-65